createdAt,value
2023-01-23T00:00:30.502Z,69.97
2023-01-23T00:02:55.356Z,50.03
2023-01-23T00:05:21.504Z,65.60
2023-01-23T00:07:46.037Z,55.83
2023-01-23T00:10:13.475Z,53.67
2023-01-23T00:12:38.016Z,51.85
2023-01-23T00:15:02.695Z,34.13
2023-01-23T00:17:28.484Z,48.38
2023-01-23T00:19:55.152Z,46.90
2023-01-23T00:22:21.218Z,49.42
2023-01-23T00:24:45.780Z,44.70
2023-01-23T00:27:10.351Z,45.83
2023-01-23T00:29:35.175Z,41.80
2023-01-23T00:32:00.045Z,43.22
2023-01-23T00:34:25.255Z,39.85
2023-01-23T00:36:50.636Z,40.65
2023-01-23T00:39:19.964Z,39.92
2023-01-23T00:41:44.696Z,32.38
2023-01-23T00:44:09.506Z,41.20
2023-01-23T00:46:35.112Z,31.85
2023-01-23T00:50:12.786Z,36.58
2023-01-23T00:52:37.715Z,32.20
2023-01-23T00:55:04.275Z,38.53
2023-01-23T00:57:30.658Z,38.97
2023-01-23T00:59:55.479Z,30.75
2023-01-23T01:02:20.339Z,46.95
2023-01-23T01:04:45.526Z,33.25
2023-01-23T01:07:10.180Z,28.40
2023-01-23T01:09:35.033Z,42.30
2023-01-23T01:12:01.257Z,24.10
2023-01-23T01:14:25.862Z,32.22
2023-01-23T01:16:50.690Z,22.25
2023-01-23T01:19:16.637Z,42.50
2023-01-23T01:21:42.386Z,38.22
2023-01-23T01:24:07.901Z,32.58
2023-01-23T01:26:32.668Z,34.95
2023-01-23T01:28:58.749Z,33.40
2023-01-23T01:31:23.643Z,32.75
2023-01-23T01:33:48.376Z,34.70
2023-01-23T01:36:14.126Z,37.05
2023-01-23T01:38:38.713Z,36.10
2023-01-23T01:41:03.383Z,34.03
2023-01-23T01:43:28.985Z,31.23
2023-01-23T01:46:09.089Z,26.23
2023-01-23T01:48:37.241Z,25.58
2023-01-23T01:51:03.683Z,26.67
2023-01-23T01:53:30.629Z,25.67
2023-01-23T01:55:55.810Z,27.48
2023-01-23T01:58:21.216Z,34.03
2023-01-23T02:00:46.151Z,22.20
2023-01-23T02:03:12.675Z,23.55
2023-01-23T02:05:42.852Z,27.40
2023-01-23T02:08:14.857Z,35.00
2023-01-23T02:10:42.120Z,43.67
2023-01-23T02:13:24.910Z,25.08
2023-01-23T02:15:50.362Z,33.40
2023-01-23T02:18:17.008Z,23.83
2023-01-23T02:20:41.658Z,22.20
2023-01-23T02:23:12.927Z,21.40
2023-01-23T02:25:43.004Z,29.90
2023-01-23T02:28:11.240Z,22.27
2023-01-23T02:30:37.463Z,20.08
2023-01-23T02:33:10.843Z,22.23
2023-01-23T02:35:35.769Z,20.30
2023-01-23T02:38:08.159Z,18.73
2023-01-23T02:40:34.106Z,17.00
2023-01-23T02:43:00.386Z,18.58
2023-01-23T02:45:27.688Z,13.65
2023-01-23T02:47:52.218Z,20.95
2023-01-23T02:50:19.555Z,15.75
2023-01-23T02:52:44.463Z,14.88
2023-01-23T02:55:09.835Z,12.63
2023-01-23T02:57:34.968Z,18.13
2023-01-23T03:00:16.644Z,14.55
2023-01-23T03:02:43.565Z,21.85
2023-01-23T03:05:09.041Z,19.17
2023-01-23T03:07:34.068Z,11.52
2023-01-23T03:09:58.663Z,17.48
2023-01-23T03:12:23.763Z,22.25
2023-01-23T03:14:53.890Z,17.67
2023-01-23T03:17:18.931Z,11.57
2023-01-23T03:19:45.383Z,22.73
2023-01-23T03:22:10.058Z,19.30
2023-01-23T03:24:36.892Z,20.40
2023-01-23T03:27:01.694Z,25.55
2023-01-23T03:29:56.609Z,21.50
2023-01-23T03:32:22.657Z,14.80
2023-01-23T03:34:49.024Z,21.35
2023-01-23T03:37:15.299Z,19.50
2023-01-23T03:40:00.110Z,18.55
2023-01-23T03:42:24.837Z,27.45
2023-01-23T03:44:52.551Z,23.75
2023-01-23T03:47:20.878Z,22.83
2023-01-23T03:49:45.674Z,12.40
2023-01-23T03:52:12.573Z,23.17
2023-01-23T03:54:37.437Z,19.52
2023-01-23T03:57:06.841Z,19.13
2023-01-23T03:59:51.797Z,16.70
2023-01-23T04:02:19.530Z,12.57
2023-01-23T04:04:44.114Z,10.82
2023-01-23T04:07:10.067Z,12.63
2023-01-23T04:09:38.594Z,15.27
2023-01-23T04:12:04.734Z,18.15
2023-01-23T04:14:37.209Z,21.73
2023-01-23T04:17:02.321Z,22.45
2023-01-23T04:19:26.980Z,18.60
2023-01-23T04:21:51.740Z,11.35
2023-01-23T04:24:17.413Z,21.20
2023-01-23T04:26:43.888Z,22.17
2023-01-23T04:29:09.078Z,15.95
2023-01-23T04:31:34.408Z,26.23
2023-01-23T04:33:59.615Z,25.00
2023-01-23T04:36:25.487Z,22.23
2023-01-23T04:38:50.879Z,16.90
2023-01-23T04:41:22.143Z,23.23
2023-01-23T04:43:50.005Z,18.23
2023-01-23T04:46:14.783Z,18.60
2023-01-23T04:48:53.574Z,16.52
2023-01-23T04:51:20.489Z,16.67
2023-01-23T04:53:45.291Z,15.63
2023-01-23T04:56:10.076Z,9.88
2023-01-23T04:58:34.644Z,14.18
2023-01-23T05:01:08.455Z,13.27
2023-01-23T05:03:35.495Z,19.48
2023-01-23T05:06:01.022Z,14.13
2023-01-23T05:08:25.968Z,15.85
2023-01-23T05:11:04.368Z,12.65
2023-01-23T05:13:30.455Z,21.10
2023-01-23T05:15:55.100Z,18.25
2023-01-23T05:18:21.797Z,12.85
2023-01-23T05:20:46.502Z,12.48
2023-01-23T05:23:11.757Z,15.85
2023-01-23T05:25:51.718Z,15.82
2023-01-23T05:28:18.376Z,8.77
2023-01-23T05:30:49.313Z,14.00
2023-01-23T05:33:32.388Z,10.93
2023-01-23T05:36:00.689Z,12.52
2023-01-23T05:38:25.196Z,12.70
2023-01-23T05:40:51.062Z,9.63
2023-01-23T05:43:38.862Z,10.50
2023-01-23T05:46:23.036Z,15.18
2023-01-23T05:48:52.710Z,12.85
2023-01-23T05:51:18.777Z,13.32
2023-01-23T05:53:43.723Z,19.70
2023-01-23T05:56:09.415Z,16.33
2023-01-23T05:58:43.858Z,16.08
2023-01-23T06:01:19.566Z,17.80
2023-01-23T06:03:57.877Z,24.42
2023-01-23T06:06:34.572Z,25.58
2023-01-23T06:09:00.820Z,17.38
2023-01-23T06:11:25.367Z,14.73
2023-01-23T06:13:49.966Z,17.92
2023-01-23T06:16:15.002Z,18.15
2023-01-23T06:18:39.774Z,28.52
2023-01-23T06:21:07.707Z,33.60
2023-01-23T06:23:34.503Z,23.88
2023-01-23T06:26:02.411Z,29.45
2023-01-23T06:28:27.889Z,36.50
2023-01-23T06:30:52.533Z,22.38
2023-01-23T06:33:28.304Z,20.80
2023-01-23T06:35:59.108Z,26.73
2023-01-23T06:40:50.098Z,31.90
2023-01-23T06:43:28.043Z,29.10
2023-01-23T06:45:53.367Z,25.05
2023-01-23T06:48:18.497Z,22.88
2023-01-23T06:50:44.693Z,21.63
2023-01-23T06:53:14.253Z,27.65
2023-01-23T06:55:41.021Z,17.70
2023-01-23T06:58:06.117Z,18.52
2023-01-23T07:00:31.212Z,22.05
2023-01-23T07:03:00.689Z,21.52
2023-01-23T07:05:25.396Z,25.40
2023-01-23T07:07:49.878Z,27.88
2023-01-23T07:10:14.803Z,24.38
2023-01-23T07:12:41.716Z,18.92
2023-01-23T07:15:09.039Z,17.42
2023-01-23T07:17:37.497Z,12.82
2023-01-23T07:20:02.520Z,15.52
2023-01-23T07:22:30.845Z,13.55
2023-01-23T07:24:55.583Z,16.25
2023-01-23T07:27:20.300Z,8.02
2023-01-23T07:29:46.718Z,13.13
2023-01-23T07:32:11.493Z,12.82
2023-01-23T07:34:36.184Z,14.70
2023-01-23T07:37:01.604Z,13.05
2023-01-23T07:39:26.492Z,9.35
2023-01-23T07:41:51.420Z,12.18
2023-01-23T07:44:18.859Z,10.38
2023-01-23T07:46:45.896Z,10.93
2023-01-23T07:49:10.946Z,21.10
2023-01-23T07:51:48.022Z,17.90
2023-01-23T07:54:13.123Z,10.75
2023-01-23T07:56:38.266Z,13.10
2023-01-23T07:59:02.925Z,12.40
2023-01-23T08:01:28.186Z,15.38
2023-01-23T08:03:55.282Z,13.00
2023-01-23T08:06:20.000Z,9.38
2023-01-23T08:08:44.904Z,10.90
2023-01-23T08:11:12.042Z,12.70
2023-01-23T08:13:36.989Z,17.00
2023-01-23T08:16:02.162Z,14.30
2023-01-23T08:18:27.155Z,13.25
2023-01-23T08:20:57.314Z,13.63
2023-01-23T08:23:25.333Z,14.32
2023-01-23T08:25:54.591Z,13.60
2023-01-23T08:28:19.464Z,12.02
2023-01-23T08:30:43.943Z,12.30
2023-01-23T08:33:08.535Z,15.25
2023-01-23T08:35:33.086Z,13.93
2023-01-23T08:37:59.068Z,14.77
2023-01-23T08:40:23.502Z,11.32
2023-01-23T08:42:48.034Z,12.45
2023-01-23T08:45:12.785Z,13.65
2023-01-23T08:47:38.196Z,18.23
2023-01-23T08:50:02.561Z,14.25
2023-01-23T08:52:27.281Z,15.82
2023-01-23T08:54:53.111Z,13.10
2023-01-23T08:57:17.490Z,18.63
2023-01-23T08:59:42.783Z,16.88
2023-01-23T09:02:07.408Z,12.23
2023-01-23T09:04:32.443Z,14.90
2023-01-23T09:06:57.479Z,10.85
2023-01-23T09:09:22.917Z,11.93
2023-01-23T09:11:49.159Z,18.27
2023-01-23T09:14:15.518Z,12.88
2023-01-23T09:16:41.404Z,11.90
2023-01-23T09:19:06.189Z,13.30
2023-01-23T09:21:30.898Z,12.48
2023-01-23T09:23:55.808Z,11.25
2023-01-23T09:26:21.137Z,14.73
2023-01-23T09:28:47.216Z,7.93
2023-01-23T09:31:14.219Z,11.75
2023-01-23T09:33:39.740Z,12.10
2023-01-23T09:36:04.292Z,15.07
2023-01-23T09:38:30.779Z,16.25
2023-01-23T09:40:58.585Z,12.90
2023-01-23T09:43:26.738Z,10.02
2023-01-23T09:46:04.807Z,16.40
2023-01-23T09:48:33.734Z,16.55
2023-01-23T09:51:03.426Z,13.82
2023-01-23T09:53:35.416Z,11.98
2023-01-23T09:56:06.092Z,11.52
2023-01-23T09:58:37.549Z,13.60
2023-01-23T10:01:05.303Z,12.88
2023-01-23T10:03:33.292Z,15.27
2023-01-23T10:06:11.282Z,14.52
2023-01-23T10:08:47.753Z,11.07
2023-01-23T10:11:20.627Z,11.85
2023-01-23T10:13:56.229Z,10.23
2023-01-23T10:16:45.005Z,12.43
2023-01-23T10:19:24.802Z,8.88
2023-01-23T10:21:57.045Z,8.60
2023-01-23T10:24:40.778Z,14.32
2023-01-23T10:27:18.620Z,9.52
2023-01-23T10:29:48.904Z,9.00
2023-01-23T10:32:25.024Z,12.25
2023-01-23T10:34:58.999Z,11.90
2023-01-23T10:37:34.511Z,12.15
2023-01-23T10:40:04.128Z,12.75
2023-01-23T10:42:29.460Z,11.15
2023-01-23T10:44:54.388Z,18.95
2023-01-23T10:47:27.965Z,15.45
2023-01-23T10:49:54.612Z,14.50
2023-01-23T10:52:37.786Z,14.52
2023-01-23T10:55:06.767Z,10.27
2023-01-23T10:57:38.161Z,16.33
2023-01-23T11:00:08.437Z,13.85
2023-01-23T11:02:35.505Z,16.88
2023-01-23T11:05:00.784Z,13.55
2023-01-23T11:07:27.422Z,11.80
2023-01-23T11:09:57.921Z,11.45
2023-01-23T11:12:24.471Z,13.35
2023-01-23T11:14:49.906Z,24.75
2023-01-23T11:17:21.740Z,17.90
2023-01-23T11:19:50.232Z,22.05
2023-01-23T11:22:32.562Z,14.88
2023-01-23T11:25:00.254Z,22.58
2023-01-23T11:27:28.135Z,19.98
2023-01-23T11:30:17.002Z,20.75
2023-01-23T11:32:49.044Z,18.42
2023-01-23T11:35:19.239Z,16.58
2023-01-23T11:37:44.236Z,13.35
2023-01-23T11:40:15.144Z,19.70
2023-01-23T11:42:42.153Z,16.95
2023-01-23T11:45:15.894Z,23.45
2023-01-23T11:48:09.212Z,17.38
2023-01-23T11:50:55.310Z,13.68
2023-01-23T11:53:36.761Z,29.20
2023-01-23T11:56:37.291Z,26.48
2023-01-23T11:59:21.845Z,21.48
2023-01-23T12:02:03.376Z,18.35
2023-01-23T12:04:45.711Z,22.20
2023-01-23T12:07:21.294Z,17.60
2023-01-23T12:09:58.112Z,20.63
2023-01-23T12:12:34.091Z,26.98
2023-01-23T12:15:07.317Z,21.27
2023-01-23T12:17:41.699Z,23.42
2023-01-23T12:20:31.570Z,19.08
2023-01-23T12:23:20.630Z,13.68
2023-01-23T12:25:53.206Z,22.30
2023-01-23T12:28:33.304Z,20.08
2023-01-23T12:31:08.463Z,17.23
2023-01-23T12:33:52.835Z,18.10
2023-01-23T12:37:11.728Z,18.15
2023-01-23T12:39:59.496Z,28.17
2023-01-23T12:42:27.969Z,18.23
2023-01-23T12:45:04.952Z,19.95
2023-01-23T12:47:35.434Z,14.57
2023-01-23T12:50:04.524Z,17.25
2023-01-23T12:52:35.170Z,22.47
2023-01-23T12:55:07.338Z,20.63
2023-01-23T12:57:59.425Z,18.20
2023-01-23T13:00:38.402Z,19.45
2023-01-23T13:03:25.881Z,20.83
2023-01-23T13:06:04.852Z,19.15
2023-01-23T13:08:40.347Z,23.77
2023-01-23T13:11:37.671Z,23.63
2023-01-23T13:14:02.263Z,16.33
2023-01-23T13:16:30.910Z,20.75
2023-01-23T13:19:14.216Z,25.52
2023-01-23T13:21:56.091Z,24.48
2023-01-23T13:24:55.387Z,19.02
2023-01-23T13:27:47.339Z,24.98
2023-01-23T13:30:43.513Z,25.33
2023-01-23T13:34:03.528Z,28.05
2023-01-23T13:36:37.723Z,31.50
2023-01-23T13:39:25.676Z,19.77
2023-01-23T13:41:52.051Z,23.92
2023-01-23T13:44:35.822Z,39.90
2023-01-23T14:21:41.091Z,20.80
2023-01-23T14:24:23.387Z,14.45
2023-01-23T14:26:51.347Z,28.17
2023-01-23T14:29:27.225Z,34.88
2023-01-23T14:31:52.551Z,30.30
2023-01-23T14:34:19.195Z,30.27
2023-01-23T14:36:47.383Z,32.22
2023-01-23T14:39:18.564Z,19.38
2023-01-23T14:41:44.896Z,31.25
2023-01-23T14:44:18.753Z,25.63
2023-01-23T14:46:46.781Z,26.70
2023-01-23T14:49:12.392Z,43.50
2023-01-23T14:51:37.846Z,31.05
2023-01-23T14:54:06.494Z,30.88
2023-01-23T14:56:36.875Z,29.00
2023-01-23T14:59:04.578Z,28.50
2023-01-23T15:01:30.588Z,22.65
2023-01-23T15:04:03.202Z,34.72
2023-01-23T15:06:29.220Z,31.92
2023-01-23T15:08:54.229Z,29.38
2023-01-23T15:11:26.477Z,24.52
2023-01-23T15:13:56.320Z,18.63
2023-01-23T15:16:22.772Z,16.15
2023-01-23T15:18:57.801Z,26.35
2023-01-23T15:21:33.393Z,22.52
2023-01-23T15:24:07.579Z,28.80
2023-01-23T15:26:36.462Z,25.27
2023-01-23T15:29:03.872Z,24.25
2023-01-23T15:31:31.350Z,24.63
2023-01-23T15:33:57.699Z,20.13
2023-01-23T15:36:30.536Z,32.53
2023-01-23T15:38:58.643Z,27.25
2023-01-23T15:41:37.119Z,18.80
2023-01-23T15:44:01.888Z,25.23
2023-01-23T15:46:27.136Z,16.70
2023-01-23T15:48:52.143Z,19.90
2023-01-23T15:51:16.693Z,23.48
2023-01-23T15:53:41.573Z,29.33
2023-01-23T15:56:25.673Z,27.35
2023-01-23T15:58:50.785Z,32.88
2023-01-23T16:01:15.349Z,23.67
2023-01-23T16:03:40.786Z,23.85
2023-01-23T16:06:06.429Z,24.83
2023-01-23T16:08:31.141Z,20.73
2023-01-23T16:10:57.652Z,26.25
2023-01-23T16:13:23.773Z,25.02
2023-01-23T16:15:49.285Z,24.83
2023-01-23T16:18:14.514Z,26.85
2023-01-23T16:20:42.205Z,25.08
2023-01-23T16:23:15.428Z,32.70
2023-01-23T16:25:44.631Z,31.30
2023-01-23T16:28:14.313Z,18.25
2023-01-23T16:30:40.372Z,21.23
2023-01-23T16:33:05.312Z,19.35
2023-01-23T16:35:30.332Z,21.98
2023-01-23T16:37:55.383Z,17.63
2023-01-23T16:40:21.649Z,27.38
2023-01-23T16:42:48.729Z,23.38
2023-01-23T16:45:18.117Z,29.42
2023-01-23T16:47:44.052Z,19.63
2023-01-23T16:50:11.206Z,26.90
2023-01-23T16:52:36.652Z,23.23
2023-01-23T16:55:01.420Z,19.80
2023-01-23T16:57:26.530Z,24.10
2023-01-23T16:59:52.233Z,24.88
2023-01-23T17:02:21.744Z,23.10
2023-01-23T17:04:48.141Z,37.58
2023-01-23T17:07:15.621Z,30.85
2023-01-23T17:09:40.292Z,22.75
2023-01-23T17:12:05.009Z,27.55
2023-01-23T17:14:32.213Z,28.75
2023-01-23T17:17:03.030Z,25.20
2023-01-23T17:19:32.871Z,25.45
2023-01-23T17:22:06.513Z,24.17
2023-01-23T17:24:31.566Z,26.30
2023-01-23T17:26:56.154Z,24.52
2023-01-23T17:29:21.195Z,27.02
2023-01-23T17:31:45.886Z,31.25
2023-01-23T17:34:20.483Z,32.47
2023-01-23T17:36:45.243Z,28.83
2023-01-23T17:39:13.324Z,26.20
2023-01-23T17:41:37.852Z,23.05
2023-01-23T17:44:02.478Z,22.85
2023-01-23T17:46:29.626Z,33.50
2023-01-23T17:48:55.822Z,29.08
2023-01-23T17:51:21.112Z,28.90
2023-01-23T17:53:46.132Z,23.20
2023-01-23T17:56:12.452Z,28.08
2023-01-23T17:58:38.895Z,21.90
2023-01-23T18:01:03.604Z,18.73
2023-01-23T18:03:28.299Z,19.58
2023-01-23T18:05:53.130Z,26.90
2023-01-23T18:08:18.805Z,29.02
2023-01-23T18:10:45.166Z,17.55
2023-01-23T18:13:20.019Z,22.00
2023-01-23T18:15:56.048Z,24.88
2023-01-23T18:18:28.930Z,29.92
2023-01-23T18:20:54.987Z,31.42
2023-01-23T18:23:20.066Z,40.05
2023-01-23T18:25:47.077Z,33.35
2023-01-23T18:28:19.779Z,25.13
2023-01-23T18:30:49.807Z,27.20
2023-01-23T18:33:41.280Z,34.95
2023-01-23T18:36:19.112Z,31.02
2023-01-23T18:39:00.216Z,25.52
2023-01-23T18:41:26.751Z,26.85
2023-01-23T18:44:01.076Z,26.60
2023-01-23T18:46:28.081Z,27.40
2023-01-23T18:48:53.369Z,22.65
2023-01-23T18:51:38.973Z,29.90
2023-01-23T18:54:16.736Z,28.10
2023-01-23T18:57:13.561Z,36.03
2023-01-23T18:59:49.497Z,24.90
2023-01-23T19:02:24.450Z,29.75
2023-01-23T19:04:55.015Z,24.08
2023-01-23T19:07:21.650Z,25.52
2023-01-23T19:09:53.288Z,29.25
2023-01-23T19:12:28.743Z,33.20
2023-01-23T19:15:06.576Z,29.90
2023-01-23T19:17:43.726Z,29.85
2023-01-23T19:20:26.555Z,24.40
2023-01-23T19:23:02.019Z,21.88
2023-01-23T19:25:33.914Z,25.83
2023-01-23T19:28:02.740Z,19.15
2023-01-23T19:30:30.587Z,19.75
2023-01-23T19:32:59.066Z,21.02
2023-01-23T19:35:23.864Z,26.85
2023-01-23T19:37:50.323Z,21.15
2023-01-23T19:40:16.954Z,23.27
2023-01-23T19:42:52.459Z,26.45
2023-01-23T19:45:21.508Z,23.63
2023-01-23T19:47:49.270Z,23.73
2023-01-23T19:50:17.046Z,23.80
2023-01-23T19:52:41.482Z,23.17
2023-01-23T19:55:07.514Z,26.80
2023-01-23T19:57:32.123Z,26.00
2023-01-23T19:59:56.846Z,23.45
2023-01-23T20:02:25.344Z,20.10
2023-01-23T20:04:51.503Z,22.98
2023-01-23T20:07:16.079Z,24.70
2023-01-23T20:09:41.090Z,15.93
2023-01-23T20:12:06.194Z,22.30
2023-01-23T20:14:30.941Z,16.15
2023-01-23T20:16:55.623Z,17.73
2023-01-23T20:19:20.503Z,26.17
2023-01-23T20:21:48.553Z,25.33
2023-01-23T20:24:13.622Z,24.70
2023-01-23T20:26:38.696Z,23.23
2023-01-23T20:29:04.208Z,26.73
2023-01-23T20:31:29.141Z,24.40
2023-01-23T20:33:54.623Z,29.00
2023-01-23T20:36:19.312Z,23.77
2023-01-23T20:38:45.631Z,31.63
2023-01-23T20:41:12.495Z,23.35
2023-01-23T20:43:37.052Z,28.20
2023-01-23T20:46:01.810Z,25.70
2023-01-23T20:48:26.358Z,28.65
2023-01-23T20:50:54.569Z,26.08
2023-01-23T20:53:31.363Z,21.38
2023-01-23T20:55:59.393Z,19.77
2023-01-23T20:58:41.582Z,26.25
2023-01-23T21:01:06.914Z,19.80
2023-01-23T21:03:31.429Z,23.85
2023-01-23T21:05:55.930Z,16.75
2023-01-23T21:08:21.369Z,22.75
2023-01-23T21:10:45.855Z,23.08
2023-01-23T21:13:15.737Z,29.40
2023-01-23T21:18:08.554Z,23.75
2023-01-23T21:20:33.715Z,32.35
2023-01-23T21:22:58.381Z,26.35
2023-01-23T21:25:23.428Z,27.23
2023-01-23T21:27:48.011Z,33.00
2023-01-23T21:30:15.294Z,18.23
2023-01-23T21:32:40.085Z,26.50
2023-01-23T21:35:04.753Z,28.90
2023-01-23T21:37:29.153Z,27.50
2023-01-23T21:39:53.739Z,18.27
2023-01-23T21:42:18.136Z,23.25
2023-01-23T21:44:42.683Z,25.15
2023-01-23T21:47:09.006Z,27.13
2023-01-23T21:49:33.648Z,25.42
2023-01-23T21:51:58.359Z,24.33
2023-01-23T21:54:23.352Z,19.88
2023-01-23T21:56:47.769Z,30.10
2023-01-23T21:59:13.017Z,28.65
2023-01-23T22:01:37.757Z,23.30
2023-01-23T22:04:05.934Z,25.92
2023-01-23T22:06:30.698Z,26.30
2023-01-23T22:08:55.370Z,21.98
2023-01-23T22:11:19.742Z,24.35
2023-01-23T22:13:44.253Z,13.77
2023-01-23T22:16:09.706Z,27.70
2023-01-23T22:18:35.111Z,27.30
2023-01-23T22:21:03.263Z,26.35
2023-01-23T22:23:28.167Z,28.92
2023-01-23T22:25:56.458Z,31.75
2023-01-23T22:28:21.208Z,26.77
2023-01-23T22:30:45.723Z,25.52
2023-01-23T22:33:10.806Z,29.63
2023-01-23T22:35:39.196Z,27.17
2023-01-23T22:38:05.080Z,33.90
2023-01-23T22:40:29.550Z,30.30
2023-01-23T22:42:54.171Z,24.17
2023-01-23T22:45:18.680Z,23.70
2023-01-23T22:47:43.754Z,31.65
2023-01-23T22:50:08.792Z,25.13
2023-01-23T22:52:35.231Z,31.88
2023-01-23T22:55:01.584Z,27.23
2023-01-23T22:57:26.811Z,23.77
2023-01-23T22:59:51.241Z,31.90
2023-01-23T23:02:15.911Z,24.00
2023-01-23T23:04:40.386Z,25.42
2023-01-23T23:07:04.947Z,24.85
2023-01-23T23:09:29.814Z,27.70
2023-01-23T23:11:55.788Z,19.50
2023-01-23T23:14:20.965Z,25.88
2023-01-23T23:16:45.954Z,31.75
2023-01-23T23:19:11.890Z,31.17
2023-01-23T23:21:38.255Z,28.58
2023-01-23T23:24:03.924Z,23.85
2023-01-23T23:26:30.832Z,19.60
2023-01-23T23:28:57.114Z,31.02
2023-01-23T23:31:22.070Z,27.60
2023-01-23T23:33:47.503Z,31.42
2023-01-23T23:36:12.611Z,29.42
2023-01-23T23:38:37.103Z,28.85
2023-01-23T23:41:03.259Z,25.55
2023-01-23T23:43:28.782Z,29.60
2023-01-23T23:45:56.116Z,24.13
2023-01-23T23:48:21.063Z,30.58
2023-01-23T23:50:45.869Z,28.27
2023-01-23T23:53:10.528Z,31.75
2023-01-23T23:55:35.062Z,30.13
2023-01-23T23:58:00.783Z,34.60
